Time;durP1;ratioP1;P1;durP2;ratioP2;P2;SDS_P1;SDS_P2;PMS_P1;PMS_P2;Temp;Humidity;BMP_temperature;BMP_pressure;BME280_temperature;BME280_humidity;BME280_pressure;Samples;Min_cycle;Max_cycle;Signal;HPM_P1;HPM_P2
2022/10/16 00:00:34;;;;;;;6.95;5.32;;;16.60;94.80;;;;;;5038172;28;20100;-71
2022/10/16 00:03:19;;;;;;;4.32;3.65;;;16.60;95.20;;;;;;5020593;28;20045;-72
2022/10/16 00:06:00;;;;;;;4.77;3.77;;;16.50;95.20;;;;;;5038034;28;20382;-70
2022/10/16 00:08:26;;;;;;;4.20;3.75;;;16.50;95.20;;;;;;5038071;28;20018;-72
2022/10/16 00:11:14;;;;;;;6.05;3.45;;;16.50;95.20;;;;;;5037932;28;20021;-70
2022/10/16 00:13:51;;;;;;;3.67;2.85;;;16.50;95.40;;;;;;5020363;28;20029;-70
2022/10/16 00:16:18;;;;;;;3.90;2.97;;;16.50;96.10;;;;;;5037851;28;20093;-70
2022/10/16 00:18:53;;;;;;;3.20;2.85;;;16.50;96.10;;;;;;5037429;28;20108;-72
2022/10/16 00:21:30;;;;;;;3.13;2.83;;;16.50;96.00;;;;;;5037769;28;20025;-70
2022/10/16 00:24:08;;;;;;;4.00;3.67;;;16.50;96.20;;;;;;5037643;28;20112;-70
2022/10/16 00:26:35;;;;;;;6.00;4.50;;;16.50;96.00;;;;;;5036615;28;20017;-70
2022/10/16 00:29:10;;;;;;;4.78;3.55;;;16.50;95.80;;;;;;5037635;28;20151;-70
2022/10/16 00:32:36;;;;;;;10.70;5.73;;;16.50;96.20;;;;;;5034077;28;20042;-70
2022/10/16 00:36:04;;;;;;;3.20;2.90;;;16.50;96.20;;;;;;5037534;28;20256;-71
2022/10/16 00:38:30;;;;;;;3.28;2.28;;;16.50;96.30;;;;;;5037452;28;20029;-70
2022/10/16 00:41:17;;;;;;;4.65;3.13;;;16.40;96.10;;;;;;5037399;28;20037;-72
2022/10/16 00:43:57;;;;;;;2.45;2.25;;;16.30;96.40;;;;;;5037406;28;20092;-70
2022/10/16 00:46:29;;;;;;;3.65;3.35;;;16.30;96.80;;;;;;5037175;28;20318;-72
2022/10/16 00:49:12;;;;;;;4.38;3.35;;;16.30;97.00;;;;;;5037203;28;20009;-70
2022/10/16 00:52:34;;;;;;;5.13;4.40;;;16.30;96.80;;;;;;5037243;28;20025;-70
2022/10/16 00:55:09;;;;;;;3.13;2.88;;;16.30;97.10;;;;;;5037059;28;20087;-70
2022/10/16 00:57:36;;;;;;;4.75;4.28;;;16.20;97.30;;;;;;5019562;28;20026;-71
2022/10/16 01:00:15;;;;;;;7.32;3.42;;;16.20;97.60;;;;;;5037053;28;20398;-71
2022/10/16 01:03:35;;;;;;;4.32;3.10;;;16.20;97.40;;;;;;5036932;28;20402;-71
2022/10/16 01:06:23;;;;;;;4.75;2.83;;;16.20;97.30;;;;;;5034741;28;20306;-70
2022/10/16 01:09:26;;;;;;;3.70;3.15;;;16.30;97.60;;;;;;5036802;28;20049;-70
2022/10/16 01:12:40;;;;;;;4.60;4.13;;;16.30;97.00;;;;;;5036711;28;20093;-70
2022/10/16 01:18:52;;;;;;;4.30;4.00;;;16.20;96.40;;;;;;5037243;28;20314;-70
2022/10/16 01:22:14;;;;;;;5.93;4.95;;;16.30;95.10;;;;;;5019206;28;20033;-70
2022/10/16 01:28:04;;;;;;;4.15;3.75;;;16.50;94.30;;;;;;5036694;28;20471;-70
2022/10/16 01:30:47;;;;;;;4.95;3.78;;;16.60;93.90;;;;;;5018206;28;20022;-70
2022/10/16 01:33:28;;;;;;;4.20;3.80;;;16.60;94.10;;;;;;5036477;28;20336;-71
2022/10/16 01:36:29;;;;;;;3.38;2.92;;;16.70;94.30;;;;;;5036430;28;20021;-70
2022/10/16 01:39:06;;;;;;;5.50;4.38;;;16.70;93.90;;;;;;5035271;28;20022;-70
2022/10/16 01:41:54;;;;;;;3.08;2.58;;;16.70;94.10;;;;;;5036448;28;20018;-70
2022/10/16 01:44:33;;;;;;;4.70;4.22;;;16.70;94.40;;;;;;5036450;28;20421;-70
2022/10/16 01:47:00;;;;;;;4.10;3.67;;;16.60;94.60;;;;;;5036355;28;20037;-70
2022/10/16 01:49:42;;;;;;;7.30;4.43;;;16.50;95.20;;;;;;5036354;28;20156;-70
2022/10/16 01:52:22;;;;;;;5.15;4.13;;;16.50;95.50;;;;;;5036371;28;20017;-70
2022/10/16 01:58:11;;;;;;;5.53;4.40;;;16.40;95.20;;;;;;5036910;28;20116;-71
2022/10/16 02:00:54;;;;;;;4.95;4.35;;;16.30;94.70;;;;;;5036229;28;20026;-70
2022/10/16 02:03:29;;;;;;;6.50;4.05;;;16.30;95.30;;;;;;5036668;28;20025;-70
2022/10/16 02:09:17;;;;;;;7.30;3.95;;;16.30;96.00;;;;;;5036332;28;20032;-70
2022/10/16 02:11:54;;;;;;;3.95;3.00;;;16.20;96.20;;;;;;5051755;28;20017;-70
2022/10/16 02:14:39;;;;;;;4.38;3.58;;;16.20;96.40;;;;;;5036344;28;20385;-70
2022/10/16 02:17:12;;;;;;;4.20;3.33;;;16.00;97.20;;;;;;5036095;28;20099;-70
2022/10/16 02:19:52;;;;;;;5.25;2.67;;;16.00;97.00;;;;;;5036274;28;20406;-70
2022/10/16 02:22:32;;;;;;;3.55;3.25;;;16.00;97.20;;;;;;5036141;28;20029;-70
2022/10/16 02:25:53;;;;;;;6.15;2.83;;;15.90;97.10;;;;;;5036002;28;20025;-70
2022/10/16 02:28:26;;;;;;;3.83;3.47;;;15.80;97.40;;;;;;5036027;28;20356;-70
2022/10/16 02:31:04;;;;;;;4.05;2.47;;;15.70;97.70;;;;;;5035890;28;20037;-70
2022/10/16 02:33:42;;;;;;;5.15;4.28;;;15.70;97.80;;;;;;5036072;28;20035;-70
2022/10/16 02:36:17;;;;;;;3.90;3.45;;;15.70;97.80;;;;;;5035864;28;20229;-70
2022/10/16 02:38:53;;;;;;;5.57;4.27;;;15.70;97.70;;;;;;5036067;28;20048;-70
2022/10/16 02:41:28;;;;;;;3.65;3.10;;;15.70;97.50;;;;;;5035836;28;20353;-72
2022/10/16 02:44:03;;;;;;;6.03;5.53;;;15.70;97.80;;;;;;5039666;28;20049;-70
2022/10/16 02:47:21;;;;;;;4.97;4.47;;;15.60;98.00;;;;;;5038539;28;20409;-72
2022/10/16 02:49:56;;;;;;;4.10;3.70;;;15.60;98.00;;;;;;5039453;28;20025;-70
2022/10/16 02:52:31;;;;;;;5.05;3.63;;;15.60;98.00;;;;;;5039411;28;20036;-72
2022/10/16 02:55:06;;;;;;;6.97;4.17;;;15.60;98.00;;;;;;5039283;28;20087;-70
2022/10/16 02:57:32;;;;;;;6.00;5.32;;;15.50;98.00;;;;;;5038344;28;20026;-70
2022/10/16 03:00:17;;;;;;;7.07;3.97;;;15.50;98.00;;;;;;5038782;28;20026;-70
2022/10/16 03:02:52;;;;;;;3.85;3.22;;;15.40;98.00;;;;;;5039188;28;20437;-72
2022/10/16 03:05:27;;;;;;;4.15;3.75;;;15.30;98.00;;;;;;5038185;28;20029;-70
2022/10/16 03:07:53;;;;;;;3.97;3.58;;;15.20;98.00;;;;;;5037972;28;20031;-70
2022/10/16 03:10:37;;;;;;;4.03;3.53;;;15.20;98.00;;;;;;5038244;28;20104;-70
2022/10/16 03:13:12;;;;;;;3.30;3.00;;;15.10;98.00;;;;;;5038184;28;20391;-70
2022/10/16 03:15:46;;;;;;;5.15;4.65;;;15.00;98.00;;;;;;5039003;28;20032;-70
2022/10/16 03:18:12;;;;;;;4.87;4.20;;;14.80;98.00;;;;;;5039090;28;20306;-70
2022/10/16 03:20:56;;;;;;;4.40;3.65;;;14.70;98.00;;;;;;5038883;28;20264;-70
2022/10/16 03:23:31;;;;;;;6.05;5.45;;;14.60;98.00;;;;;;5039110;28;20351;-70
2022/10/16 03:29:32;;;;;;;5.10;3.72;;;14.50;98.00;;;;;;5038816;28;20028;-70
2022/10/16 03:32:24;;;;;;;4.95;4.15;;;14.40;98.00;;;;;;5053684;28;20069;-72
2022/10/16 03:38:11;;;;;;;5.00;4.38;;;14.30;98.00;;;;;;5038693;28;20072;-72
2022/10/16 03:40:46;;;;;;;6.70;4.40;;;14.40;98.00;;;;;;5038711;28;20022;-73
2022/10/16 03:43:21;;;;;;;4.93;3.60;;;14.40;98.00;;;;;;5021034;28;20017;-72
2022/10/16 03:45:56;;;;;;;4.05;3.53;;;14.50;98.00;;;;;;5038475;28;20086;-72
2022/10/16 03:48:22;;;;;;;5.45;4.07;;;14.60;98.00;;;;;;5038384;28;20036;-72
2022/10/16 03:51:30;;;;;;;4.57;4.03;;;14.70;98.00;;;;;;5038458;28;20021;-72
2022/10/16 03:54:05;;;;;;;5.03;4.55;;;14.70;98.00;;;;;;5037476;28;20024;-72
2022/10/16 03:56:31;;;;;;;5.93;4.55;;;14.60;98.00;;;;;;5038107;28;20070;-72
2022/10/16 03:59:15;;;;;;;4.85;4.22;;;14.70;98.00;;;;;;5038349;28;20034;-72
2022/10/16 04:01:50;;;;;;;3.53;2.50;;;14.70;98.00;;;;;;5038075;28;20316;-72
2022/10/16 04:07:38;;;;;;;3.72;3.42;;;14.60;98.00;;;;;;5038125;28;20028;-72
2022/10/16 04:10:13;;;;;;;4.15;3.75;;;14.50;98.00;;;;;;5038075;28;20084;-70
2022/10/16 04:12:47;;;;;;;3.72;3.25;;;14.40;98.00;;;;;;5037984;28;20148;-70
2022/10/16 04:18:44;;;;;;;6.32;5.55;;;14.20;98.00;;;;;;5038379;28;20420;-70
2022/10/16 04:21:19;;;;;;;5.57;5.07;;;14.10;98.00;;;;;;5037905;28;20021;-70
2022/10/16 04:23:53;;;;;;;5.10;4.20;;;14.10;98.00;;;;;;5037793;28;20020;-70
2022/10/16 04:26:28;;;;;;;3.60;3.25;;;14.00;98.00;;;;;;5037498;28;20025;-72
2022/10/16 04:29:04;;;;;;;4.85;4.38;;;14.00;98.00;;;;;;5037615;28;20436;-72
2022/10/16 04:31:31;;;;;;;6.40;5.78;;;13.90;98.00;;;;;;5037270;28;20048;-71
2022/10/16 04:34:06;;;;;;;6.28;3.72;;;13.90;98.00;;;;;;5037384;28;20041;-70
2022/10/16 04:36:32;;;;;;;4.22;3.83;;;13.90;98.00;;;;;;5037460;28;20021;-70
2022/10/16 04:39:16;;;;;;;14.25;6.13;;;13.90;98.00;;;;;;5036444;28;20318;-70
2022/10/16 04:41:51;;;;;;;4.80;4.40;;;13.80;98.00;;;;;;5019749;28;20025;-70
2022/10/16 04:44:26;;;;;;;4.63;4.10;;;13.80;98.00;;;;;;5037292;28;20302;-70
2022/10/16 04:46:52;;;;;;;15.02;3.15;;;13.80;98.00;;;;;;5037123;28;20341;-70
2022/10/16 04:49:36;;;;;;;5.03;4.28;;;13.70;98.00;;;;;;5037459;28;20030;-70
2022/10/16 04:52:11;;;;;;;4.50;3.38;;;13.50;98.00;;;;;;5036091;28;20394;-70
2022/10/16 04:57:58;;;;;;;4.60;4.07;;;13.40;98.00;;;;;;5037511;28;20032;-70
2022/10/16 05:00:34;;;;;;;3.05;2.35;;;13.40;98.00;;;;;;5037103;28;20013;-70
2022/10/16 05:03:08;;;;;;;3.83;3.45;;;13.40;98.00;;;;;;5036972;28;20025;-72
2022/10/16 05:05:45;;;;;;;4.10;3.80;;;13.50;98.00;;;;;;5036905;28;20014;-70
2022/10/16 05:08:13;;;;;;;3.47;2.65;;;13.50;98.00;;;;;;5036812;28;20298;-70
2022/10/16 05:10:48;;;;;;;5.07;3.40;;;13.50;98.00;;;;;;5052461;28;20107;-70
2022/10/16 05:13:23;;;;;;;4.75;3.85;;;13.50;98.00;;;;;;5019324;28;20028;-72
2022/10/16 05:15:58;;;;;;;4.40;3.25;;;13.50;98.00;;;;;;5052445;28;20022;-72
2022/10/16 05:18:24;;;;;;;4.78;4.35;;;13.50;98.00;;;;;;5035673;28;20088;-72
2022/10/16 05:21:01;;;;;;;3.67;3.33;;;13.50;98.00;;;;;;5036821;28;20049;-72
2022/10/16 05:23:36;;;;;;;5.07;4.60;;;13.50;98.00;;;;;;5036818;28;20029;-72
2022/10/16 05:29:39;;;;;;;4.20;2.53;;;13.40;98.00;;;;;;5036965;28;20032;-72
2022/10/16 05:33:05;;;;;;;3.58;3.25;;;13.40;98.00;;;;;;5034830;28;20128;-72
2022/10/16 05:36:21;;;;;;;2.42;2.08;;;13.50;98.00;;;;;;5036563;28;20021;-72
2022/10/16 05:39:46;;;;;;;5.03;3.72;;;13.60;98.00;;;;;;5036606;28;20057;-72
2022/10/16 05:43:11;;;;;;;4.00;3.03;;;13.80;98.00;;;;;;5036500;28;20030;-72
2022/10/16 05:46:27;;;;;;;4.57;4.18;;;14.00;98.00;;;;;;5036392;28;20032;-73
2022/10/16 05:49:51;;;;;;;6.20;4.25;;;14.30;98.00;;;;;;5036303;28;20110;-70
2022/10/16 05:52:42;;;;;;;2.97;2.70;;;14.50;98.00;;;;;;5036501;28;20032;-72
2022/10/16 05:55:18;;;;;;;4.03;3.72;;;14.60;98.00;;;;;;5036745;28;20032;-70
2022/10/16 05:57:43;;;;;;;3.88;2.95;;;14.70;98.00;;;;;;5036308;28;20029;-70
2022/10/16 06:00:18;;;;;;;4.05;3.72;;;14.70;98.00;;;;;;5036381;28;20083;-70
2022/10/16 06:02:53;;;;;;;3.92;3.63;;;14.80;98.00;;;;;;5036241;28;20026;-70
2022/10/16 06:08:51;;;;;;;4.95;4.05;;;14.90;98.00;;;;;;5036262;28;20298;-70
2022/10/16 06:11:29;;;;;;;2.65;2.35;;;15.10;97.70;;;;;;5036242;28;20460;-70
2022/10/16 06:14:06;;;;;;;3.97;3.05;;;15.10;97.00;;;;;;5036105;28;20398;-72
2022/10/16 06:20:03;;;;;;;3.22;2.85;;;15.20;97.30;;;;;;5040121;28;20086;-71
2022/10/16 06:22:38;;;;;;;4.77;4.27;;;15.30;97.10;;;;;;5040169;28;20037;-70
2022/10/16 06:28:26;;;;;;;3.85;3.15;;;15.30;98.00;;;;;;5039941;28;20039;-70
2022/10/16 06:31:02;;;;;;;4.68;3.83;;;15.30;98.00;;;;;;5055434;28;20384;-71
2022/10/16 06:34:39;;;;;;;7.05;4.85;;;15.30;98.00;;;;;;5039451;28;20061;-70
2022/10/16 06:37:05;;;;;;;3.20;2.60;;;15.40;98.00;;;;;;5039894;28;20018;-70
2022/10/16 06:39:49;;;;;;;4.05;3.67;;;15.40;98.00;;;;;;5039809;28;20033;-70
2022/10/16 06:42:24;;;;;;;3.53;3.28;;;15.50;98.00;;;;;;5039657;28;20021;-70
2022/10/16 06:44:59;;;;;;;6.63;5.22;;;15.50;98.00;;;;;;5039667;28;20017;-70
2022/10/16 06:47:25;;;;;;;4.30;3.55;;;15.50;98.00;;;;;;5038478;28;20068;-71
2022/10/16 06:50:09;;;;;;;3.85;3.45;;;15.50;98.00;;;;;;5039547;28;20024;-70
2022/10/16 06:52:44;;;;;;;3.45;3.15;;;15.60;98.00;;;;;;5039524;28;20013;-70
2022/10/16 06:58:31;;;;;;;4.07;3.78;;;15.60;98.00;;;;;;5039751;28;20021;-70
2022/10/16 07:01:07;;;;;;;6.32;4.80;;;15.60;98.00;;;;;;5055009;28;20029;-70
2022/10/16 07:03:55;;;;;;;3.63;3.33;;;15.60;98.00;;;;;;5038275;28;20024;-70
2022/10/16 07:09:58;;;;;;;5.70;3.92;;;15.70;98.00;;;;;;5039271;28;20436;-70
2022/10/16 07:12:33;;;;;;;4.40;2.78;;;15.70;98.00;;;;;;5039090;28;20025;-70
2022/10/16 07:15:08;;;;;;;5.82;4.13;;;15.80;98.00;;;;;;5039115;28;20025;-70
2022/10/16 07:17:34;;;;;;;4.10;3.70;;;15.90;98.00;;;;;;5038956;28;20033;-72
2022/10/16 07:20:42;;;;;;;5.28;3.88;;;16.00;98.00;;;;;;5039201;28;20021;-70
2022/10/16 07:23:17;;;;;;;6.95;4.70;;;16.10;98.00;;;;;;5038792;28;20029;-70
2022/10/16 07:25:55;;;;;;;4.93;4.30;;;16.20;96.90;;;;;;5038847;28;20021;-70
2022/10/16 07:28:21;;;;;;;4.68;3.83;;;16.30;97.40;;;;;;5037817;28;20468;-70
2022/10/16 07:31:05;;;;;;;4.43;4.07;;;16.30;97.70;;;;;;5038813;28;20044;-70
2022/10/16 07:33:44;;;;;;;6.13;5.53;;;16.40;96.80;;;;;;5038214;28;20045;-70
2022/10/16 07:39:41;;;;;;;6.32;3.85;;;16.50;97.10;;;;;;5038965;28;20067;-70
2022/10/16 07:43:07;;;;;;;4.50;4.07;;;16.50;97.50;;;;;;5037553;28;20117;-70
2022/10/16 07:50:10;;;;;;;6.97;3.95;;;16.80;97.30;;;;;;5038889;28;20121;-70
2022/10/16 07:53:35;;;;;;;3.75;3.40;;;16.90;96.30;;;;;;5038543;28;20440;-70
2022/10/16 07:57:00;;;;;;;5.43;3.97;;;17.00;95.80;;;;;;5038686;28;20297;-70
2022/10/16 08:00:25;;;;;;;5.70;3.92;;;17.10;95.90;;;;;;5038305;28;20310;-70
2022/10/16 08:03:50;;;;;;;3.55;3.17;;;17.10;96.10;;;;;;5038261;28;20413;-70
2022/10/16 08:06:17;;;;;;;4.00;3.58;;;17.10;95.80;;;;;;5037954;28;20029;-71
2022/10/16 08:08:56;;;;;;;5.35;4.18;;;17.30;95.90;;;;;;5053705;28;20057;-70
2022/10/16 08:11:31;;;;;;;4.13;3.50;;;17.50;96.80;;;;;;5038186;28;20275;-70
2022/10/16 08:14:05;;;;;;;3.13;2.65;;;17.50;95.40;;;;;;5038044;28;20040;-70
2022/10/16 08:20:08;;;;;;;3.05;2.55;;;17.60;94.30;;;;;;5037930;28;20028;-70
2022/10/16 08:22:43;;;;;;;5.57;4.63;;;17.60;94.50;;;;;;5037790;28;20022;-71
2022/10/16 08:28:31;;;;;;;3.67;3.35;;;17.90;94.80;;;;;;5037756;28;20428;-70
2022/10/16 08:31:20;;;;;;;4.50;3.45;;;18.20;94.60;;;;;;5037769;28;20014;-71
2022/10/16 08:33:54;;;;;;;5.00;3.72;;;18.40;92.50;;;;;;5036878;28;20064;-70
2022/10/16 08:39:54;;;;;;;5.30;3.45;;;18.90;91.70;;;;;;5037448;28;20421;-70
2022/10/16 08:42:32;;;;;;;4.63;3.08;;;19.70;89.10;;;;;;5037605;28;20397;-71
2022/10/16 08:45:54;;;;;;;5.13;4.22;;;20.30;87.70;;;;;;5037440;28;20068;-70
2022/10/16 08:48:59;;;;;;;4.57;4.03;;;20.60;86.60;;;;;;5035472;28;20061;-70
2022/10/16 08:51:35;;;;;;;4.47;3.50;;;20.70;85.20;;;;;;5019348;28;20424;-70
2022/10/16 08:57:36;;;;;;;4.47;4.07;;;20.80;84.10;;;;;;5035548;28;20095;-70
2022/10/16 09:00:15;;;;;;;6.70;4.13;;;20.70;84.30;;;;;;5035340;28;20410;-70
2022/10/16 09:03:23;;;;;;;5.15;4.60;;;21.10;85.30;;;;;;5035229;28;20021;-71
2022/10/16 09:10:03;;;;;;;4.07;3.60;;;22.30;80.40;;;;;;5035476;28;20156;-70
2022/10/16 09:13:34;;;;;;;5.47;3.92;;;22.70;79.70;;;;;;5035181;28;20057;-70
2022/10/16 09:19:41;;;;;;;8.93;5.82;;;22.80;78.80;;;;;;4956874;28;20122;-70
2022/10/16 09:22:36;;;;;;;5.85;4.00;;;23.00;78.30;;;;;;4956965;29;20027;-70
2022/10/16 09:25:17;;;;;;;6.63;3.90;;;23.10;78.10;;;;;;4956859;28;20079;-70
2022/10/16 09:27:47;;;;;;;4.10;3.70;;;23.10;78.20;;;;;;4956623;29;20042;-70
2022/10/16 09:30:22;;;;;;;5.40;3.80;;;23.20;78.90;;;;;;4940738;29;20019;-71
2022/10/16 09:32:52;;;;;;;5.53;3.50;;;23.20;76.90;;;;;;4956314;29;20035;-70
2022/10/16 09:38:39;;;;;;;3.83;3.42;;;23.50;78.30;;;;;;4957502;28;20110;-71
2022/10/16 09:41:30;;;;;;;5.30;4.07;;;23.20;77.10;;;;;;5036484;28;20100;-71
2022/10/16 09:44:32;;;;;;;4.00;3.42;;;23.20;78.30;;;;;;5036459;28;20018;-70
2022/10/16 09:47:14;;;;;;;7.28;4.90;;;23.40;78.30;;;;;;5036577;28;20029;-71
2022/10/16 09:50:33;;;;;;;6.85;4.65;;;23.70;77.50;;;;;;5036430;28;20420;-72
2022/10/16 09:54:01;;;;;;;7.47;4.45;;;23.50;76.80;;;;;;5033518;28;20413;-70
2022/10/16 09:59:59;;;;;;;5.30;3.75;;;23.30;78.60;;;;;;4995415;28;20026;-71
2022/10/16 10:02:44;;;;;;;5.78;4.20;;;23.50;78.20;;;;;;4995273;28;20570;-70
2022/10/16 10:08:32;;;;;;;6.95;3.67;;;23.40;78.80;;;;;;5014730;28;20322;-70
2022/10/16 10:11:12;;;;;;;4.50;3.30;;;23.20;79.90;;;;;;5014715;28;20030;-70
2022/10/16 10:13:47;;;;;;;4.60;3.30;;;23.20;80.20;;;;;;4998151;28;20433;-71
2022/10/16 10:16:24;;;;;;;4.95;3.72;;;23.40;78.10;;;;;;5014563;28;20080;-70
2022/10/16 10:19:00;;;;;;;5.00;4.28;;;23.40;78.90;;;;;;4998072;28;20124;-71
2022/10/16 10:21:37;;;;;;;4.22;3.35;;;23.30;78.60;;;;;;5014609;28;20449;-72
2022/10/16 10:24:14;;;;;;;4.28;3.78;;;23.60;79.00;;;;;;5014508;28;20348;-72
2022/10/16 10:27:14;;;;;;;4.78;3.47;;;23.80;78.30;;;;;;5014485;28;20018;-72
2022/10/16 10:30:08;;;;;;;6.63;4.10;;;23.40;77.10;;;;;;5019661;28;20418;-71
2022/10/16 10:33:36;;;;;;;5.90;3.45;;;23.20;80.10;;;;;;5051568;28;20425;-70
2022/10/16 10:36:40;;;;;;;4.20;3.25;;;23.00;78.30;;;;;;5055933;28;20112;-71
2022/10/16 10:39:34;;;;;;;7.90;4.70;;;23.00;78.20;;;;;;5055926;28;20021;-72
2022/10/16 10:42:30;;;;;;;5.43;4.25;;;22.90;79.30;;;;;;5055952;28;20316;-71
2022/10/16 10:48:43;;;;;;;5.30;4.07;;;23.50;78.80;;;;;;5055893;28;20328;-71
2022/10/16 10:51:51;;;;;;;5.45;3.97;;;23.70;78.00;;;;;;5055763;28;20329;-72
2022/10/16 10:54:47;;;;;;;4.45;3.92;;;23.70;78.80;;;;;;5033910;28;20025;-71
2022/10/16 10:57:29;;;;;;;7.70;4.53;;;23.50;76.50;;;;;;5033941;28;20029;-71
2022/10/16 11:00:28;;;;;;;6.18;4.20;;;23.70;79.70;;;;;;5017521;28;20073;-71
2022/10/16 11:10:23;;;;;;;4.32;3.53;;;24.10;79.30;;;;;;5037653;28;20040;-70
2022/10/16 11:13:16;;;;;;;6.68;4.07;;;24.40;76.90;;;;;;4978464;28;20041;-71
2022/10/16 11:19:34;;;;;;;4.38;3.67;;;24.30;77.30;;;;;;4978322;28;20395;-71
2022/10/16 11:25:39;;;;;;;5.97;4.15;;;23.10;79.30;;;;;;4978490;28;20370;-71
2022/10/16 11:28:13;;;;;;;5.45;4.38;;;22.80;80.00;;;;;;4978258;28;20061;-70
2022/10/16 11:31:21;;;;;;;7.37;4.00;;;22.90;80.60;;;;;;5038304;28;20062;-70
2022/10/16 11:34:47;;;;;;;5.20;3.97;;;23.10;81.20;;;;;;5028845;28;20406;-71
2022/10/16 11:38:12;;;;;;;5.28;3.70;;;23.20;79.40;;;;;;5017576;28;20030;-70
2022/10/16 11:41:37;;;;;;;7.25;5.25;;;22.90;81.60;;;;;;5018929;28;20053;-70
2022/10/16 11:48:08;;;;;;;4.68;4.00;;;21.70;82.40;;;;;;5018968;28;20041;-70
2022/10/16 11:51:29;;;;;;;5.55;4.18;;;21.20;83.60;;;;;;5018727;28;20100;-70
2022/10/16 11:54:18;;;;;;;6.65;4.25;;;21.30;84.70;;;;;;5018661;28;20500;-70
2022/10/16 11:56:45;;;;;;;6.55;5.00;;;21.30;86.10;;;;;;5018597;28;20029;-71
2022/10/16 11:59:25;;;;;;;4.85;4.43;;;21.50;85.80;;;;;;5018490;28;20026;-70
2022/10/16 12:02:40;;;;;;;4.72;4.18;;;21.40;84.60;;;;;;5018304;28;20112;-70
2022/10/16 12:12:07;;;;;;;3.53;3.20;;;21.40;84.50;;;;;;5018620;28;20087;-70
2022/10/16 12:18:51;;;;;;;3.88;3.10;;;21.30;85.90;;;;;;5018550;28;20487;-70
2022/10/16 12:21:39;;;;;;;4.95;3.83;;;20.90;85.70;;;;;;5018065;28;20033;-71
2022/10/16 12:24:50;;;;;;;6.85;5.50;;;20.60;87.10;;;;;;5018079;28;20307;-70
2022/10/16 12:28:06;;;;;;;5.97;4.80;;;20.40;86.90;;;;;;5016284;28;20291;-70
2022/10/16 12:30:43;;;;;;;5.05;4.55;;;20.30;88.20;;;;;;5018294;28;20100;-70
2022/10/16 12:41:22;;;;;;;7.53;4.97;;;20.40;89.70;;;;;;5037858;28;20048;-70
2022/10/16 12:44:33;;;;;;;4.53;4.10;;;20.50;88.60;;;;;;5037509;28;20017;-71
2022/10/16 12:46:59;;;;;;;4.65;4.05;;;20.50;88.50;;;;;;5037435;28;20029;-70
2022/10/16 12:49:39;;;;;;;7.18;4.90;;;20.40;88.00;;;;;;5037458;28;20013;-71
2022/10/16 12:52:46;;;;;;;6.25;4.70;;;20.40;89.40;;;;;;5037481;28;20025;-70
2022/10/16 12:58:51;;;;;;;3.53;3.22;;;20.20;88.20;;;;;;4992031;28;20120;-70
2022/10/16 13:02:13;;;;;;;4.53;3.63;;;20.00;91.00;;;;;;5037294;28;20398;-70
2022/10/16 13:05:15;;;;;;;4.32;3.42;;;19.90;90.30;;;;;;4976441;28;20039;-71
2022/10/16 13:08:13;;;;;;;5.43;4.00;;;19.80;90.80;;;;;;4990133;28;20318;-70
2022/10/16 13:11:14;;;;;;;5.50;3.85;;;19.70;91.30;;;;;;5036903;28;20083;-70
2022/10/16 13:17:53;;;;;;;4.90;3.60;;;19.50;92.40;;;;;;5037027;28;20047;-71
2022/10/16 13:20:43;;;;;;;4.60;4.20;;;19.30;92.20;;;;;;5036861;28;20107;-70
2022/10/16 13:24:13;;;;;;;5.18;3.65;;;19.20;92.40;;;;;;5036770;28;20290;-70
2022/10/16 13:26:54;;;;;;;4.88;4.40;;;19.10;93.20;;;;;;5035660;28;20017;-71
2022/10/16 13:29:41;;;;;;;6.18;4.20;;;19.10;94.50;;;;;;5036641;28;20393;-70
2022/10/16 13:32:16;;;;;;;6.20;3.83;;;19.10;94.40;;;;;;5036696;28;20452;-71
2022/10/16 13:38:17;;;;;;;4.85;3.45;;;19.00;95.40;;;;;;5036950;28;20321;-70
2022/10/16 13:41:04;;;;;;;2.65;2.20;;;19.00;93.90;;;;;;5036618;28;20074;-70
2022/10/16 13:43:55;;;;;;;3.90;3.17;;;18.90;95.00;;;;;;5036581;28;20017;-70
2022/10/16 13:50:01;;;;;;;4.35;3.92;;;18.90;95.00;;;;;;5036701;28;20132;-70
2022/10/16 13:52:37;;;;;;;3.28;2.97;;;18.80;95.20;;;;;;5036447;28;20374;-70
2022/10/16 13:55:18;;;;;;;4.32;3.50;;;18.80;95.20;;;;;;5036474;28;20029;-70
2022/10/16 13:57:44;;;;;;;4.93;4.10;;;18.90;95.40;;;;;;5036376;28;20048;-70
2022/10/16 14:00:31;;;;;;;4.25;3.55;;;19.00;93.90;;;;;;5036491;28;20025;-70
2022/10/16 14:03:22;;;;;;;4.35;3.67;;;18.90;94.40;;;;;;5036456;28;20036;-72
2022/10/16 14:09:21;;;;;;;3.85;3.47;;;18.80;95.20;;;;;;5036555;28;20107;-71
2022/10/16 14:12:03;;;;;;;4.85;3.88;;;18.80;94.80;;;;;;5036248;28;20028;-72
2022/10/16 14:17:52;;;;;;;3.72;3.38;;;18.80;94.40;;;;;;5036558;28;20088;-72
2022/10/16 14:20:31;;;;;;;4.95;4.45;;;18.80;95.10;;;;;;5051843;28;20104;-72
2022/10/16 14:23:39;;;;;;;8.57;4.18;;;18.80;94.10;;;;;;5036198;28;20022;-72
2022/10/16 14:29:27;;;;;;;4.68;3.58;;;18.80;95.10;;;;;;4995182;28;20045;-72
2022/10/16 14:32:32;;;;;;;3.58;3.08;;;18.90;93.70;;;;;;4987102;28;20026;-72
2022/10/16 14:38:40;;;;;;;5.80;4.28;;;18.90;95.10;;;;;;5038262;28;20128;-72
2022/10/16 14:41:15;;;;;;;4.80;3.40;;;18.80;94.50;;;;;;5039809;28;20029;-72
2022/10/16 14:43:56;;;;;;;5.22;4.25;;;18.80;95.20;;;;;;5039797;28;20026;-72
2022/10/16 14:46:50;;;;;;;3.33;3.03;;;18.90;94.70;;;;;;5039585;28;20025;-72
2022/10/16 14:49:28;;;;;;;4.63;4.15;;;19.00;94.10;;;;;;5038512;28;20317;-72
2022/10/16 14:52:08;;;;;;;5.47;3.83;;;19.00;93.30;;;;;;5039544;28;20018;-72
2022/10/16 14:57:56;;;;;;;4.78;4.25;;;18.90;94.30;;;;;;5039618;28;20095;-72
2022/10/16 15:00:31;;;;;;;6.28;4.80;;;19.00;94.80;;;;;;5039483;28;20410;-72
2022/10/16 15:03:06;;;;;;;4.57;4.13;;;19.00;94.20;;;;;;5039361;28;20022;-72
2022/10/16 15:08:53;;;;;;;4.25;3.25;;;18.90;94.90;;;;;;5039516;28;20036;-72
2022/10/16 15:11:28;;;;;;;4.70;4.25;;;18.90;94.90;;;;;;5039694;28;20321;-72
2022/10/16 15:14:03;;;;;;;5.05;3.75;;;18.90;94.70;;;;;;5038089;28;20394;-72
2022/10/16 15:17:19;;;;;;;3.95;3.60;;;18.80;94.50;;;;;;5039166;28;20052;-72
2022/10/16 15:19:53;;;;;;;4.78;3.72;;;18.70;95.30;;;;;;5039394;28;20341;-72
2022/10/16 15:22:28;;;;;;;3.97;3.60;;;18.60;96.00;;;;;;5039101;28;20049;-72
2022/10/16 15:28:17;;;;;;;4.18;3.30;;;18.50;95.50;;;;;;5039512;28;20064;-72
2022/10/16 15:30:54;;;;;;;6.38;5.78;;;18.50;95.30;;;;;;5038837;28;20445;-72
2022/10/16 15:33:32;;;;;;;5.18;3.75;;;18.50;95.80;;;;;;5038809;28;20156;-72
2022/10/16 15:37:06;;;;;;;6.07;5.07;;;18.40;96.60;;;;;;5038197;28;20050;-72
2022/10/16 15:40:22;;;;;;;4.82;4.43;;;18.40;96.10;;;;;;5038775;28;20104;-72
2022/10/16 15:43:49;;;;;;;4.18;3.78;;;18.40;97.40;;;;;;5037504;28;20065;-72
2022/10/16 15:49:49;;;;;;;3.80;2.85;;;18.30;96.60;;;;;;5037853;28;20436;-72
2022/10/16 15:52:24;;;;;;;3.53;3.22;;;18.30;97.20;;;;;;5054026;28;20029;-72
2022/10/16 15:57:53;;;;;;;3.40;3.10;;;18.10;97.30;;;;;;5038533;28;20244;-72
2022/10/16 16:00:28;;;;;;;5.63;4.45;;;18.00;98.00;;;;;;5038316;28;20025;-72
2022/10/16 16:03:03;;;;;;;2.97;2.72;;;17.90;98.00;;;;;;5037376;28;20108;-72
2022/10/16 16:08:51;;;;;;;4.10;3.65;;;17.80;98.00;;;;;;5038034;28;20087;-72
2022/10/16 16:11:37;;;;;;;5.20;3.92;;;17.70;98.00;;;;;;5020653;28;20072;-72
2022/10/16 16:14:13;;;;;;;2.78;2.38;;;17.70;98.00;;;;;;5037131;28;20026;-72
2022/10/16 16:16:39;;;;;;;3.72;3.42;;;17.70;98.00;;;;;;5038088;28;20048;-72
2022/10/16 16:19:20;;;;;;;5.30;4.15;;;17.60;98.00;;;;;;5037975;28;20297;-72
2022/10/16 16:21:55;;;;;;;4.55;2.90;;;17.50;98.00;;;;;;5038007;28;20410;-72
2022/10/16 16:24:29;;;;;;;6.50;4.50;;;17.40;98.00;;;;;;5037658;28;20398;-72
2022/10/16 16:26:55;;;;;;;6.22;4.43;;;17.30;98.00;;;;;;5036767;28;20025;-72
2022/10/16 16:29:39;;;;;;;3.55;3.17;;;17.30;98.00;;;;;;5036772;28;20021;-72
2022/10/16 16:32:14;;;;;;;7.07;3.70;;;17.10;98.00;;;;;;5037786;28;20429;-72
2022/10/16 16:42:20;;;;;;;5.53;4.03;;;16.70;98.00;;;;;;5037685;28;20031;-72
2022/10/16 16:48:07;;;;;;;6.35;4.55;;;16.20;98.00;;;;;;5037637;28;20043;-72
2022/10/16 16:50:45;;;;;;;4.60;3.45;;;16.00;98.00;;;;;;5053024;28;20108;-72
2022/10/16 16:53:21;;;;;;;5.63;4.40;;;15.90;98.00;;;;;;5037405;28;20017;-72
2022/10/16 16:58:52;;;;;;;4.88;4.43;;;15.80;98.00;;;;;;5037339;28;20050;-72
2022/10/16 17:01:31;;;;;;;3.60;3.30;;;15.70;98.00;;;;;;5036939;28;20074;-72
2022/10/16 17:04:06;;;;;;;5.15;3.38;;;15.80;98.00;;;;;;5019451;28;20052;-72
2022/10/16 17:06:32;;;;;;;3.88;3.53;;;15.80;98.00;;;;;;5036966;28;20424;-72
2022/10/16 17:09:16;;;;;;;6.15;5.05;;;15.80;98.00;;;;;;5037333;28;20065;-72
2022/10/16 17:11:51;;;;;;;5.05;4.45;;;15.80;98.00;;;;;;5036783;28;20025;-72
2022/10/16 17:14:25;;;;;;;3.70;3.40;;;15.70;98.00;;;;;;5036854;28;20025;-72
2022/10/16 17:16:52;;;;;;;5.22;4.65;;;15.70;98.00;;;;;;5036805;28;20025;-72
2022/10/16 17:20:01;;;;;;;4.85;3.95;;;15.60;98.00;;;;;;5035893;28;20117;-72
2022/10/16 17:22:36;;;;;;;3.65;3.30;;;15.50;98.00;;;;;;5036657;28;20025;-72